SCIE/CCP METAR and TAF weather

Enter ICAO airport designator
Station Type Date Time Source
SCIE METAR 2019/05/26 02:00 UTC NOAA

SCIE 260200Z 12004KT 9999 BKN030 OVC045 11/08 Q1014


Station Type Date Time Source
SCIE Decoded METAR 2019/05/26 02:00 UTC NOAA

Concepcion, Chile (SCIE) 36-46S 073-03W
May 25, 2019 - 10:00 PM EDT / 2019.05.26 0200 UTC
Wind: from the ESE (120 degrees) at 5 MPH (4 KT):0
Visibility: greater than 7 mile(s):0
Sky conditions: overcast
Temperature: 51 F (11 C)
Dew Point: 46 F (8 C)
Relative Humidity: 81%
Pressure (altimeter): 29.94 in. Hg (1014 hPa)
ob: SCIE 260200Z 12004KT 9999 BKN030 OVC045 11/08 Q1014
cycle: 2

Station Type Date Time Source
SCIE TAF 2019/05/26 02:12 UTC NOAA

TAF
AMD TAF
AMD SCIE 260208Z 2602/2624 12004KT 9999 BKN030 BKN050 TX13/2618Z TN08/2611Z
BECMG 2606/2608 2000 BR BKN008 BKN100
TEMPO 2610/2614 0800 -DZ FG OVC002
BECMG 2618/2620 7000 BKN020 BKN100
TEMPO 2621/2700 SCT020 BKN100

Example: see airport list